TPOK1: Kansas River, State-Line, KS

                                SHEF ID:       TPOK1     MARAIS DES CYGNES R NR KS-MO ST
STATION TYPE:

STAGE STAGE(2) RIV-FLOW BAT-LOAD
ft ft cfs volt
Ccp-Rev Ccp-Rev Ccp-Rev Ccp-Rev
(America/Chicago)
07/17 00:00 6.04 5.99 973 12.49
07/17 01:00 6.05 6.02 979 12.46
07/17 02:00 6.09 6.05 1000 12.44
07/17 03:00 6.15 6.09 1032 12.40
07/17 04:00 6.22 6.15 1070 12.41
07/17 05:00 6.25 6.24 1087 12.36
07/17 06:00 6.34 6.28 1137 12.36
07/17 07:00 6.40 6.34 1172 12.36
07/17 08:00 6.47 6.40 1212 12.40
07/17 09:00 6.50 6.41 1230 12.74
07/17 10:00 6.55 6.46 1259 13.26
07/17 11:00 6.54 6.51 1253 12.92
07/17 12:00 6.58 6.50 1277 13.41
07/17 13:00 6.59 6.53 1283 13.33
07/17 14:00 6.56 6.51 1265 13.25
07/17 15:00 6.56 6.53 1265 13.09
07/17 16:00 6.54 6.49 1253 13.08
07/17 17:00 6.54 6.48 1253 13.05
07/17 18:00 6.53 6.47 1248 12.80
07/17 19:00 6.49 6.46 1224 12.63
07/17 20:00 6.48 6.42 1218 12.61
07/17 21:00 6.45 6.41 1201 12.56
07/17 22:00 6.45 6.38 1201 12.56
07/17 23:00 6.41 6.34 1177 12.53
Data processed at Sat 18Jul2026 04:52 GMT

NOTICE: If you are parsing this page

Please convert to using our Data API. Starting early 2026 we will be migrating to: https://water.usace.army.mil with modern pages rendered in JavaScript. When this migration completes you will no longer be able to scrape this page! CWMSDataAPI (CDA)

Timeseries IDs (TSIDs)

TSIDs used from left to right in the data table
MKSL.Stage.Inst.1Hour.0.Ccp-Rev
MKSL.Stage-Alt.Inst.1Hour.0.Ccp-Rev
MKSL.Flow.Inst.1Hour.0.Ccp-Rev
MKSL.Volt-Battery Load.Inst.1Hour.0.Ccp-Rev

                            

All information presented herein is the property of the government of the United States of America and may be revised or deleted at any time without prior notice. Dissemination of this information without the expressed written consent of the Public Affairs Office, Tulsa District U.S. Army Corps of Engineers is strictly prohibited. These data are gathered electronically and, as presented, have NOT undergone any form of quality control. These data are NOT guaranteed to be valid or correct.